Time;durP1;ratioP1;P1;durP2;ratioP2;P2;SDS_P1;SDS_P2;PMS_P1;PMS_P2;Temp;Humidity;BMP_temperature;BMP_pressure;BME280_temperature;BME280_humidity;BME280_pressure;Samples;Min_cycle;Max_cycle;Signal;HPM_P1;HPM_P2
2023/01/10 00:00:08;;;;;;;23.77;3.38;;;5.40;99.90;;;;;;4928592;29;20067;-75
2023/01/10 00:02:35;;;;;;;14.15;3.42;;;5.40;99.90;;;;;;4928444;29;20052;-77
2023/01/10 00:05:04;;;;;;;35.20;4.35;;;5.40;99.90;;;;;;4928072;29;20103;-77
2023/01/10 00:07:31;;;;;;;31.33;4.57;;;5.40;99.90;;;;;;4925655;29;20507;-75
2023/01/10 00:09:58;;;;;;;15.30;3.28;;;5.40;99.90;;;;;;4921798;29;20101;-76
2023/01/10 00:15:18;;;;;;;19.10;3.63;;;5.40;99.90;;;;;;4928159;29;20054;-77
2023/01/10 00:17:47;;;;;;;19.88;3.38;;;5.40;99.90;;;;;;4908205;29;20068;-76
2023/01/10 00:20:14;;;;;;;28.42;6.50;;;5.40;99.90;;;;;;4921442;29;20055;-77
2023/01/10 00:22:44;;;;;;;23.60;4.70;;;5.40;99.90;;;;;;4932223;29;20048;-76
2023/01/10 00:25:11;;;;;;;35.05;6.13;;;5.40;99.90;;;;;;4932644;29;20039;-75
2023/01/10 00:27:38;;;;;;;37.08;3.72;;;5.40;99.90;;;;;;4932398;29;20071;-75
2023/01/10 00:30:12;;;;;;;14.57;3.45;;;5.50;99.90;;;;;;4932496;29;20138;-75
2023/01/10 00:32:43;;;;;;;12.45;2.83;;;5.50;99.90;;;;;;4933278;29;20062;-75
2023/01/10 00:35:10;;;;;;;18.50;2.78;;;5.50;99.90;;;;;;4932509;29;20067;-76
2023/01/10 00:37:38;;;;;;;21.13;3.55;;;5.50;99.90;;;;;;4915316;29;20059;-75
2023/01/10 00:40:09;;;;;;;25.30;3.65;;;5.50;99.90;;;;;;4915355;29;20048;-75
2023/01/10 00:45:23;;;;;;;18.45;4.65;;;5.50;99.90;;;;;;4591459;29;9999846;-76
2023/01/10 00:47:50;;;;;;;19.95;4.20;;;5.50;99.90;;;;;;4917234;29;20099;-76
2023/01/10 00:50:17;;;;;;;19.00;3.40;;;5.50;99.90;;;;;;4915710;29;20487;-75
2023/01/10 00:52:44;;;;;;;27.65;5.93;;;5.50;99.90;;;;;;4917043;29;20055;-75
2023/01/10 00:55:11;;;;;;;24.00;4.82;;;5.50;99.90;;;;;;4933533;29;20134;-76
2023/01/10 00:57:38;;;;;;;23.42;4.57;;;5.50;99.90;;;;;;4933674;29;20087;-76
2023/01/10 01:00:07;;;;;;;16.90;4.35;;;5.50;99.90;;;;;;4928054;29;20065;-76
2023/01/10 01:02:35;;;;;;;29.27;3.95;;;5.40;99.90;;;;;;4932411;29;20043;-75
2023/01/10 01:05:02;;;;;;;13.38;2.50;;;5.40;99.90;;;;;;4933548;29;20521;-77
2023/01/10 01:07:28;;;;;;;21.02;3.40;;;5.40;99.90;;;;;;4933744;29;20143;-76
2023/01/10 01:12:41;;;;;;;26.95;3.42;;;5.30;99.90;;;;;;4933355;29;20074;-76
2023/01/10 01:15:08;;;;;;;15.65;3.10;;;5.20;99.90;;;;;;4933721;29;20511;-76
2023/01/10 01:17:35;;;;;;;17.48;3.75;;;5.20;99.90;;;;;;4933361;29;20138;-76
2023/01/10 01:20:01;;;;;;;13.73;2.58;;;5.20;99.90;;;;;;4934003;29;20057;-77
2023/01/10 01:22:28;;;;;;;25.35;3.40;;;5.20;99.90;;;;;;4913214;29;20048;-76
2023/01/10 01:24:55;;;;;;;24.60;3.42;;;5.20;99.90;;;;;;4931206;29;20082;-76
2023/01/10 01:27:22;;;;;;;21.80;4.15;;;5.20;99.90;;;;;;4933435;29;20056;-76
2023/01/10 01:29:48;;;;;;;21.35;2.83;;;5.10;99.90;;;;;;4933554;29;20594;-76
2023/01/10 01:32:15;;;;;;;20.05;3.72;;;5.20;99.90;;;;;;4932891;29;20110;-76
2023/01/10 01:34:42;;;;;;;21.92;3.42;;;5.20;99.90;;;;;;4933517;29;20055;-77
2023/01/10 01:37:09;;;;;;;21.98;4.45;;;5.20;99.90;;;;;;4932949;29;20044;-76
2023/01/10 01:39:35;;;;;;;22.17;4.53;;;5.20;99.90;;;;;;4933487;29;20122;-76
2023/01/10 01:42:04;;;;;;;13.13;2.78;;;5.20;99.90;;;;;;4931850;29;20495;-75
2023/01/10 01:44:32;;;;;;;16.20;3.97;;;5.20;99.90;;;;;;4931873;29;20051;-76
2023/01/10 01:47:26;;;;;;;18.25;3.10;;;5.20;99.90;;;;;;4933290;29;20135;-76
2023/01/10 01:49:53;;;;;;;21.15;4.78;;;5.20;99.90;;;;;;4923988;29;20058;-76
2023/01/10 01:52:24;;;;;;;24.55;2.97;;;5.20;99.90;;;;;;4934996;29;20461;-75
2023/01/10 01:54:52;;;;;;;21.30;3.47;;;5.10;99.90;;;;;;4920942;29;20051;-75
2023/01/10 01:57:19;;;;;;;21.77;3.25;;;5.10;99.90;;;;;;4901082;29;20083;-75
2023/01/10 01:59:47;;;;;;;16.60;3.00;;;5.00;99.90;;;;;;4897603;29;20128;-75
2023/01/10 02:02:22;;;;;;;24.10;3.55;;;5.00;99.90;;;;;;4903579;29;20475;-76
2023/01/10 02:04:52;;;;;;;22.88;3.05;;;5.10;99.90;;;;;;4929124;29;20126;-75
2023/01/10 02:07:19;;;;;;;17.98;3.25;;;5.10;99.90;;;;;;4900522;29;20051;-76
2023/01/10 02:09:52;;;;;;;16.77;3.03;;;5.10;99.90;;;;;;4899875;29;20156;-76
2023/01/10 02:12:19;;;;;;;14.00;3.85;;;5.10;99.90;;;;;;4900406;29;20060;-77
2023/01/10 02:14:47;;;;;;;25.90;5.72;;;5.10;99.90;;;;;;4931240;29;20501;-76
2023/01/10 02:17:13;;;;;;;18.92;3.55;;;5.10;99.90;;;;;;4899581;29;20051;-76
2023/01/10 02:19:55;;;;;;;19.98;3.53;;;5.10;99.90;;;;;;4914601;29;20051;-76
2023/01/10 02:23:00;;;;;;;24.10;3.55;;;5.10;99.90;;;;;;4924283;29;20061;-76
2023/01/10 02:25:32;;;;;;;20.77;3.40;;;5.20;99.90;;;;;;4931398;29;20142;-76
2023/01/10 02:28:26;;;;;;;17.85;2.60;;;5.20;99.90;;;;;;4935942;29;20503;-75
2023/01/10 02:31:08;;;;;;;18.65;7.03;;;5.20;99.90;;;;;;4929551;29;20044;-76
2023/01/10 02:33:44;;;;;;;18.15;3.20;;;5.30;99.90;;;;;;4931215;29;20515;-77
2023/01/10 02:36:24;;;;;;;22.55;4.85;;;5.20;99.90;;;;;;4899192;29;20120;-76
2023/01/10 02:39:04;;;;;;;14.40;2.15;;;5.20;99.90;;;;;;4931102;29;20079;-76
2023/01/10 02:41:45;;;;;;;14.07;3.03;;;5.20;99.90;;;;;;4905169;29;20167;-75
2023/01/10 02:44:22;;;;;;;26.45;4.70;;;5.20;99.90;;;;;;4930407;29;20541;-75
2023/01/10 02:46:49;;;;;;;24.58;4.05;;;5.20;99.90;;;;;;4905162;29;20052;-75
2023/01/10 02:49:16;;;;;;;18.65;3.63;;;5.10;99.90;;;;;;4913970;29;20059;-75
2023/01/10 02:51:42;;;;;;;31.08;4.13;;;5.10;99.90;;;;;;4931000;29;20059;-76
2023/01/10 02:54:17;;;;;;;26.70;3.90;;;5.00;99.90;;;;;;4931061;29;20047;-75
2023/01/10 02:57:04;;;;;;;24.20;4.25;;;5.00;99.90;;;;;;4899087;29;20060;-75
2023/01/10 02:59:54;;;;;;;23.95;3.47;;;5.00;99.90;;;;;;4915005;29;20063;-75
2023/01/10 03:02:26;;;;;;;15.00;4.03;;;5.00;99.90;;;;;;4922162;29;20067;-74
2023/01/10 03:05:28;;;;;;;21.45;3.53;;;5.00;99.90;;;;;;4913698;29;20135;-75
2023/01/10 03:08:02;;;;;;;22.70;4.95;;;5.00;99.90;;;;;;4911644;29;20054;-74
2023/01/10 03:11:02;;;;;;;;;;;5.10;99.90;;;;;;4931147;29;20405;-74
2023/01/10 03:13:40;;;;;;;17.33;2.75;;;5.00;99.90;;;;;;4827110;29;1123120;-75
2023/01/10 03:16:09;;;;;;;12.38;3.30;;;5.10;99.90;;;;;;4892918;29;20051;-75
2023/01/10 03:18:40;;;;;;;25.75;2.90;;;5.10;99.90;;;;;;4896380;29;20068;-76
2023/01/10 03:21:07;;;;;;;27.45;3.33;;;5.10;99.90;;;;;;4897398;29;20084;-75
2023/01/10 03:23:34;;;;;;;14.77;3.10;;;5.20;99.90;;;;;;4907321;29;20139;-76
2023/01/10 03:26:01;;;;;;;16.45;3.35;;;5.20;99.90;;;;;;4906750;29;20075;-74
2023/01/10 03:28:50;;;;;;;20.23;3.22;;;5.20;99.90;;;;;;4884055;29;20567;-74
2023/01/10 03:31:27;;;;;;;24.85;3.45;;;5.20;99.90;;;;;;4896144;29;20570;-74
2023/01/10 03:33:54;;;;;;;21.70;3.88;;;5.10;99.90;;;;;;4891468;29;20052;-75
2023/01/10 03:36:34;;;;;;;17.73;3.45;;;5.10;99.90;;;;;;4908468;29;20131;-75
2023/01/10 03:39:10;;;;;;;18.58;2.78;;;5.10;99.90;;;;;;4897571;29;20127;-74
2023/01/10 03:41:37;;;;;;;18.77;5.20;;;5.10;99.90;;;;;;4898952;29;20419;-74
2023/01/10 03:44:43;;;;;;;25.05;3.05;;;5.10;99.90;;;;;;4900167;29;20056;-75
2023/01/10 03:47:12;;;;;;;19.85;3.67;;;5.10;99.90;;;;;;4892436;29;20128;-75
2023/01/10 03:49:40;;;;;;;24.85;3.20;;;5.20;99.90;;;;;;4906226;29;20066;-76
2023/01/10 03:52:08;;;;;;;15.18;2.50;;;5.20;99.90;;;;;;4891844;29;20048;-75
2023/01/10 03:54:35;;;;;;;13.90;4.15;;;5.20;99.90;;;;;;4882171;29;20088;-76
2023/01/10 03:57:02;;;;;;;20.48;3.63;;;5.10;99.90;;;;;;4895331;29;20047;-76
2023/01/10 03:59:28;;;;;;;13.23;2.20;;;5.20;99.90;;;;;;4905194;29;20146;-75
2023/01/10 04:01:55;;;;;;;15.25;3.05;;;5.20;99.90;;;;;;4908386;29;20076;-75
2023/01/10 04:04:22;;;;;;;19.52;3.42;;;5.20;99.90;;;;;;4901442;29;20140;-76
2023/01/10 04:06:49;;;;;;;23.27;3.53;;;5.20;99.90;;;;;;4895879;29;20097;-76
2023/01/10 04:09:16;;;;;;;26.25;5.18;;;5.20;99.90;;;;;;4902286;29;20052;-76
2023/01/10 04:11:43;;;;;;;18.00;3.85;;;5.20;99.90;;;;;;4914975;29;20045;-75
2023/01/10 04:14:09;;;;;;;21.95;3.67;;;5.20;99.90;;;;;;4934689;29;20054;-76
2023/01/10 04:16:36;;;;;;;15.68;2.70;;;5.20;99.90;;;;;;4934703;29;20044;-76
2023/01/10 04:19:03;;;;;;;20.50;3.33;;;5.30;99.90;;;;;;4931293;29;20054;-76
2023/01/10 04:21:29;;;;;;;19.05;3.28;;;5.30;99.90;;;;;;4931700;29;20054;-75
2023/01/10 04:23:59;;;;;;;22.27;3.72;;;5.20;99.90;;;;;;4929286;29;20043;-76
2023/01/10 04:26:26;;;;;;;25.23;4.55;;;5.20;99.90;;;;;;4931558;29;20051;-76
2023/01/10 04:28:53;;;;;;;13.23;2.58;;;5.20;99.90;;;;;;4931295;29;20055;-75
2023/01/10 04:31:21;;;;;;;22.15;5.45;;;5.20;99.90;;;;;;4930348;29;20135;-75
2023/01/10 04:33:48;;;;;;;20.10;3.83;;;5.20;99.90;;;;;;4931220;29;20098;-75
2023/01/10 04:36:15;;;;;;;24.88;6.70;;;5.20;99.90;;;;;;4930463;29;20051;-75
2023/01/10 04:38:41;;;;;;;22.85;3.17;;;5.20;99.90;;;;;;4914018;29;20058;-75
2023/01/10 04:41:08;;;;;;;21.30;3.38;;;5.30;99.90;;;;;;4930866;29;20055;-75
2023/01/10 04:43:35;;;;;;;15.43;3.00;;;5.30;99.90;;;;;;4930198;29;20066;-75
2023/01/10 04:46:02;;;;;;;21.42;4.15;;;5.30;99.90;;;;;;4930818;29;20082;-75
2023/01/10 04:48:29;;;;;;;19.15;2.88;;;5.30;99.90;;;;;;4930996;29;20055;-76
2023/01/10 04:50:56;;;;;;;12.57;2.50;;;5.40;99.90;;;;;;4914274;29;20052;-76
2023/01/10 04:53:23;;;;;;;22.25;2.85;;;5.40;99.90;;;;;;4930989;29;20043;-75
2023/01/10 04:55:49;;;;;;;15.25;3.60;;;5.50;99.90;;;;;;4930913;29;20052;-76
2023/01/10 04:58:16;;;;;;;11.38;2.90;;;5.50;99.90;;;;;;4931125;29;20619;-75
2023/01/10 05:00:43;;;;;;;27.95;6.85;;;5.50;99.90;;;;;;4923895;29;20054;-74
2023/01/10 05:03:10;;;;;;;19.40;2.95;;;5.50;99.90;;;;;;4931828;29;20531;-74
2023/01/10 05:05:36;;;;;;;22.77;3.20;;;5.60;99.90;;;;;;4931319;29;20048;-74
2023/01/10 05:08:03;;;;;;;25.05;4.20;;;5.60;99.90;;;;;;4934142;29;20562;-75
2023/01/10 05:10:30;;;;;;;28.77;5.40;;;5.60;99.90;;;;;;4934961;29;20126;-73
2023/01/10 05:12:57;;;;;;;23.30;4.00;;;5.60;99.90;;;;;;4935054;29;20051;-75
2023/01/10 05:15:24;;;;;;;24.02;3.17;;;5.70;99.90;;;;;;4933778;29;20048;-74
2023/01/10 05:17:57;;;;;;;20.70;3.90;;;5.70;99.90;;;;;;4934170;29;20051;-75
2023/01/10 05:20:23;;;;;;;19.48;3.60;;;5.70;99.90;;;;;;4934265;29;20143;-76
2023/01/10 05:22:50;;;;;;;21.08;4.05;;;5.80;99.90;;;;;;4934130;29;20052;-75
2023/01/10 05:25:17;;;;;;;37.28;7.68;;;5.80;99.90;;;;;;4933760;29;20058;-76
2023/01/10 05:27:43;;;;;;;20.52;4.28;;;5.90;99.90;;;;;;4934021;29;20052;-75
2023/01/10 05:30:11;;;;;;;19.98;3.95;;;5.90;99.90;;;;;;4933941;29;20424;-75
2023/01/10 05:32:38;;;;;;;28.65;3.85;;;6.00;99.90;;;;;;4933998;29;20080;-74
2023/01/10 05:35:05;;;;;;;16.00;2.75;;;6.00;99.90;;;;;;4933583;29;20134;-74
2023/01/10 05:37:32;;;;;;;25.77;4.53;;;6.10;99.90;;;;;;4916677;29;20491;-74
2023/01/10 05:39:59;;;;;;;21.83;4.25;;;6.10;99.90;;;;;;4933260;29;20062;-75
2023/01/10 05:42:25;;;;;;;25.80;3.70;;;6.20;99.90;;;;;;4916571;29;20059;-74
2023/01/10 05:44:52;;;;;;;23.67;3.75;;;6.20;99.90;;;;;;4933675;29;20055;-75
2023/01/10 05:47:19;;;;;;;12.55;3.15;;;6.20;99.90;;;;;;4933774;29;20054;-75
2023/01/10 05:49:45;;;;;;;21.13;3.88;;;6.20;99.90;;;;;;4933612;29;20450;-75
2023/01/10 05:52:13;;;;;;;18.83;3.30;;;6.20;99.90;;;;;;4916181;29;20043;-74
2023/01/10 05:54:40;;;;;;;19.55;3.80;;;6.30;99.90;;;;;;4916412;29;20054;-74
2023/01/10 05:57:06;;;;;;;20.95;2.95;;;6.30;99.90;;;;;;4933156;29;20138;-74
2023/01/10 05:59:33;;;;;;;18.90;2.95;;;6.40;99.90;;;;;;4929890;29;20055;-75
2023/01/10 06:02:00;;;;;;;19.15;3.53;;;6.40;99.90;;;;;;4928962;29;20048;-75
2023/01/10 06:04:26;;;;;;;23.65;4.28;;;6.50;99.90;;;;;;4933275;29;20062;-74
2023/01/10 06:06:53;;;;;;;18.05;3.05;;;6.50;99.90;;;;;;4932783;29;20091;-75
2023/01/10 06:09:20;;;;;;;24.90;4.40;;;6.60;99.90;;;;;;4933048;29;20450;-76
2023/01/10 06:11:46;;;;;;;21.88;3.83;;;6.70;99.90;;;;;;4932517;29;20051;-75
2023/01/10 06:14:17;;;;;;;22.70;4.05;;;6.80;99.90;;;;;;4933303;29;20048;-76
2023/01/10 06:16:45;;;;;;;31.15;4.55;;;6.80;99.90;;;;;;4932856;29;20044;-75
2023/01/10 06:19:12;;;;;;;15.68;5.07;;;6.90;99.90;;;;;;4931811;29;20633;-76
2023/01/10 06:21:38;;;;;;;37.17;4.63;;;6.90;99.90;;;;;;4932436;29;20046;-75
2023/01/10 06:24:06;;;;;;;21.20;4.60;;;6.90;99.90;;;;;;4933042;29;20426;-75
2023/01/10 06:26:32;;;;;;;34.85;7.50;;;6.90;99.90;;;;;;4932405;29;20044;-75
2023/01/10 06:28:59;;;;;;;26.63;3.78;;;6.90;99.90;;;;;;4932772;29;20044;-76
2023/01/10 06:31:26;;;;;;;23.95;4.35;;;6.90;99.90;;;;;;4932653;29;20510;-75
2023/01/10 06:33:53;;;;;;;21.20;3.65;;;6.90;99.90;;;;;;4932751;29;20484;-76
2023/01/10 06:36:20;;;;;;;23.40;4.13;;;7.00;99.90;;;;;;4927635;29;20062;-74
2023/01/10 06:38:47;;;;;;;20.10;3.83;;;7.00;99.90;;;;;;4933191;29;20071;-76
2023/01/10 06:41:13;;;;;;;13.60;3.13;;;7.00;99.90;;;;;;4936870;29;20142;-75
2023/01/10 06:43:44;;;;;;;26.42;3.80;;;6.90;99.90;;;;;;4934892;29;20134;-75
2023/01/10 06:46:16;;;;;;;22.05;4.40;;;7.00;99.90;;;;;;4932637;29;20054;-76
2023/01/10 06:48:44;;;;;;;18.58;4.32;;;7.00;99.90;;;;;;4932316;29;20047;-75
2023/01/10 06:51:12;;;;;;;27.70;3.70;;;7.00;99.90;;;;;;4932841;29;20146;-70
2023/01/10 06:53:39;;;;;;;25.85;3.33;;;7.00;99.90;;;;;;4915166;29;20106;-68
2023/01/10 06:56:07;;;;;;;29.08;3.55;;;7.00;99.90;;;;;;4915271;29;20130;-70
2023/01/10 06:58:37;;;;;;;17.75;3.10;;;7.00;99.90;;;;;;4933069;29;20107;-70
2023/01/10 07:01:12;;;;;;;17.95;4.80;;;7.00;99.90;;;;;;4934396;29;20090;-69
2023/01/10 07:03:39;;;;;;;22.30;3.50;;;7.00;99.90;;;;;;4916925;29;20418;-70
2023/01/10 07:06:09;;;;;;;26.67;5.18;;;7.00;99.90;;;;;;4933804;29;20060;-71
2023/01/10 07:08:39;;;;;;;24.80;3.80;;;7.00;99.90;;;;;;4933696;29;20122;-71
2023/01/10 07:11:07;;;;;;;21.95;3.50;;;7.00;99.90;;;;;;4934040;29;20075;-70
2023/01/10 07:13:34;;;;;;;22.08;3.88;;;6.90;99.90;;;;;;4931718;29;20134;-70
2023/01/10 07:16:05;;;;;;;35.28;3.67;;;6.90;99.90;;;;;;4932045;29;20063;-70
2023/01/10 07:18:33;;;;;;;16.63;3.50;;;6.90;99.90;;;;;;4912690;29;20502;-72
2023/01/10 07:21:00;;;;;;;23.55;5.38;;;6.90;99.90;;;;;;4907644;29;20122;-71
2023/01/10 07:23:29;;;;;;;25.08;4.28;;;6.90;99.90;;;;;;4931365;29;20090;-71
2023/01/10 07:25:57;;;;;;;24.58;3.90;;;6.90;99.90;;;;;;4925380;29;20131;-71
2023/01/10 07:28:24;;;;;;;17.65;3.22;;;6.90;99.90;;;;;;4931417;29;20431;-74
2023/01/10 07:30:52;;;;;;;24.50;4.53;;;6.90;99.90;;;;;;4931039;29;20044;-71
2023/01/10 07:33:19;;;;;;;23.20;3.72;;;6.80;99.90;;;;;;4925572;29;20559;-72
2023/01/10 07:35:45;;;;;;;16.35;3.40;;;6.90;99.90;;;;;;4931173;29;20129;-70
2023/01/10 07:38:12;;;;;;;18.90;3.00;;;6.80;99.90;;;;;;4931361;29;20054;-72
2023/01/10 07:40:39;;;;;;;21.45;3.88;;;6.80;99.90;;;;;;4931131;29;20058;-73
2023/01/10 07:43:06;;;;;;;24.10;3.95;;;6.80;99.90;;;;;;4931871;29;20066;-70
2023/01/10 07:45:33;;;;;;;19.38;2.75;;;6.90;99.90;;;;;;4932157;29;20051;-71
2023/01/10 07:48:01;;;;;;;29.02;7.38;;;6.90;99.90;;;;;;4930962;29;20051;-72
2023/01/10 07:50:29;;;;;;;15.07;3.78;;;6.90;99.90;;;;;;4928253;29;20082;-72
2023/01/10 07:52:56;;;;;;;25.13;4.22;;;6.80;99.90;;;;;;4928980;29;20062;-73
2023/01/10 07:55:22;;;;;;;16.42;3.45;;;7.10;99.90;;;;;;4906560;29;20048;-72
2023/01/10 07:57:50;;;;;;;24.70;4.55;;;6.90;99.90;;;;;;4914017;29;20055;-73
2023/01/10 08:00:17;;;;;;;18.10;3.30;;;7.00;99.90;;;;;;4914532;29;20067;-73
2023/01/10 08:02:50;;;;;;;21.95;3.63;;;7.00;99.90;;;;;;4932029;29;20048;-73
2023/01/10 08:05:16;;;;;;;19.33;2.85;;;7.00;99.90;;;;;;4913750;29;20047;-73
2023/01/10 08:07:43;;;;;;;21.48;3.25;;;7.10;99.90;;;;;;4929711;29;20052;-73
2023/01/10 08:10:10;;;;;;;17.70;3.20;;;7.10;99.90;;;;;;4930473;29;20054;-72
2023/01/10 08:12:37;;;;;;;16.45;3.72;;;7.10;99.90;;;;;;4930604;29;20068;-75
2023/01/10 08:15:05;;;;;;;32.63;5.13;;;7.20;99.90;;;;;;4930772;29;20479;-75
2023/01/10 08:17:33;;;;;;;20.20;3.78;;;7.20;99.90;;;;;;4930637;29;20048;-76
2023/01/10 08:19:59;;;;;;;14.40;3.42;;;7.20;99.90;;;;;;4930408;29;20083;-76
2023/01/10 08:22:26;;;;;;;23.33;3.00;;;7.30;99.90;;;;;;4923627;29;20056;-75
2023/01/10 08:24:53;;;;;;;24.55;2.72;;;7.30;99.90;;;;;;4930908;29;20415;-76
2023/01/10 08:27:20;;;;;;;15.95;3.30;;;7.30;99.90;;;;;;4930044;29;20054;-76
2023/01/10 08:29:46;;;;;;;20.80;3.55;;;7.30;99.90;;;;;;4930953;29;20418;-76
2023/01/10 08:32:13;;;;;;;9.88;2.00;;;7.30;99.90;;;;;;4930462;29;20059;-76
2023/01/10 08:34:40;;;;;;;17.75;3.55;;;7.30;99.90;;;;;;4930926;29;20047;-74
2023/01/10 08:37:09;;;;;;;15.60;2.00;;;7.30;99.90;;;;;;4930475;29;20054;-74
2023/01/10 08:39:38;;;;;;;19.00;4.10;;;7.30;99.90;;;;;;4913117;29;20074;-73
2023/01/10 08:42:04;;;;;;;12.63;2.30;;;7.30;99.90;;;;;;4929933;29;20076;-74
2023/01/10 08:44:31;;;;;;;11.48;2.47;;;7.30;99.90;;;;;;4933726;29;20689;-74
2023/01/10 08:46:58;;;;;;;12.45;2.42;;;7.30;99.90;;;;;;4933897;29;20043;-73
2023/01/10 08:49:25;;;;;;;12.23;2.40;;;7.30;99.90;;;;;;4933965;29;20119;-74
2023/01/10 08:51:52;;;;;;;16.70;2.38;;;7.30;99.90;;;;;;4929684;29;20933;-74
2023/01/10 08:54:19;;;;;;;11.77;2.40;;;7.30;99.90;;;;;;4910351;29;20130;-75
2023/01/10 08:56:45;;;;;;;11.63;2.88;;;7.30;99.90;;;;;;4933931;29;20051;-74
2023/01/10 08:59:12;;;;;;;17.25;3.40;;;7.30;99.90;;;;;;4934013;29;20059;-75
2023/01/10 09:01:39;;;;;;;6.43;1.65;;;7.30;99.90;;;;;;4932832;29;20043;-75
2023/01/10 09:04:06;;;;;;;11.45;2.40;;;7.30;99.90;;;;;;4936930;29;20426;-74
2023/01/10 09:06:32;;;;;;;9.30;1.95;;;7.30;99.90;;;;;;4936779;29;20134;-75
2023/01/10 09:08:59;;;;;;;16.92;2.45;;;7.30;99.90;;;;;;4933937;29;20048;-75
2023/01/10 09:11:26;;;;;;;16.73;2.63;;;7.30;99.90;;;;;;4933821;29;20500;-74
2023/01/10 09:13:53;;;;;;;9.70;1.80;;;7.30;99.90;;;;;;4916766;29;20067;-74
2023/01/10 09:16:20;;;;;;;8.20;1.45;;;7.30;99.90;;;;;;4934233;29;20048;-74
2023/01/10 09:18:46;;;;;;;13.05;1.75;;;7.30;99.90;;;;;;4933603;29;20059;-74
2023/01/10 09:21:13;;;;;;;5.97;1.48;;;7.30;99.90;;;;;;4933698;29;20517;-74
2023/01/10 09:23:42;;;;;;;3.97;1.50;;;7.40;99.90;;;;;;4933418;29;20503;-73
2023/01/10 09:26:09;;;;;;;18.08;4.97;;;7.40;99.90;;;;;;4933640;29;20051;-73
2023/01/10 09:28:35;;;;;;;6.78;1.23;;;7.40;99.90;;;;;;4933142;29;20574;-74
2023/01/10 09:31:03;;;;;;;5.90;1.00;;;7.40;99.90;;;;;;4933481;29;20107;-74
2023/01/10 09:33:30;;;;;;;7.78;1.42;;;7.40;99.90;;;;;;4933228;29;20139;-74
2023/01/10 09:36:12;;;;;;;2.58;0.60;;;7.40;99.90;;;;;;4932553;29;20052;-74
2023/01/10 09:38:39;;;;;;;4.32;0.90;;;7.50;99.90;;;;;;4933486;29;20381;-75
2023/01/10 09:41:27;;;;;;;3.22;0.93;;;7.50;99.90;;;;;;4936016;29;20056;-75
2023/01/10 09:44:02;;;;;;;1.38;0.65;;;7.50;99.90;;;;;;4936530;29;20687;-74
2023/01/10 09:46:38;;;;;;;3.53;0.60;;;7.50;99.90;;;;;;4920323;29;20116;-75
2023/01/10 09:49:17;;;;;;;11.00;0.93;;;7.50;99.90;;;;;;4901761;29;20143;-75
2023/01/10 09:51:46;;;;;;;1.92;0.60;;;7.60;99.90;;;;;;4939960;29;20567;-76
2023/01/10 09:54:33;;;;;;;0.93;0.50;;;7.50;99.90;;;;;;4901018;29;20052;-76
2023/01/10 09:57:00;;;;;;;1.35;0.50;;;7.50;99.90;;;;;;4933392;29;20134;-74
2023/01/10 09:59:36;;;;;;;1.75;0.40;;;7.50;99.90;;;;;;4900875;29;20082;-75
2023/01/10 10:02:13;;;;;;;0.30;0.28;;;7.60;99.90;;;;;;4917256;29;20058;-75
2023/01/10 10:04:40;;;;;;;1.40;0.40;;;7.60;99.90;;;;;;4912675;29;20143;-75
2023/01/10 10:07:13;;;;;;;0.85;0.45;;;7.60;99.90;;;;;;4924714;29;20095;-75
2023/01/10 10:09:40;;;;;;;3.70;1.00;;;7.60;99.90;;;;;;4916033;29;20036;-75
2023/01/10 10:12:47;;;;;;;0.63;0.30;;;7.60;99.90;;;;;;4912817;29;20056;-75
2023/01/10 10:15:41;;;;;;;1.88;0.30;;;7.60;99.90;;;;;;4873356;29;20143;-75
2023/01/10 10:18:22;;;;;;;0.52;0.30;;;7.60;99.90;;;;;;4868822;29;20136;-74
2023/01/10 10:20:57;;;;;;;1.55;0.35;;;7.70;99.90;;;;;;4904092;29;20052;-75
2023/01/10 10:23:55;;;;;;;0.17;0.17;;;7.60;99.90;;;;;;4913653;29;20149;-74
2023/01/10 10:26:28;;;;;;;1.55;0.40;;;7.70;99.90;;;;;;4912689;29;20075;-75
2023/01/10 10:29:52;;;;;;;0.50;0.50;;;7.70;99.90;;;;;;4913735;29;20595;-75
2023/01/10 10:32:35;;;;;;;1.17;0.60;;;7.70;99.90;;;;;;4862558;29;20136;-75
2023/01/10 10:35:11;;;;;;;0.68;0.57;;;7.70;99.90;;;;;;4897932;29;20124;-73
2023/01/10 10:37:45;;;;;;;2.05;0.52;;;7.80;99.90;;;;;;4912593;29;20412;-73
2023/01/10 10:40:12;;;;;;;;;;;7.80;99.90;;;;;;4894946;29;20136;-74
2023/01/10 10:42:42;;;;;;;0.30;0.30;;;7.90;99.90;;;;;;4913519;29;20367;-74
2023/01/10 10:45:17;;;;;;;2.15;0.38;;;7.80;99.90;;;;;;4911877;29;20332;-75
2023/01/10 10:47:49;;;;;;;1.42;0.50;;;7.90;99.90;;;;;;4902189;29;20055;-75
2023/01/10 10:50:35;;;;;;;0.88;0.40;;;7.90;99.90;;;;;;4912297;29;20055;-75
2023/01/10 10:53:02;;;;;;;1.23;0.47;;;8.00;99.90;;;;;;4915346;29;20572;-75
2023/01/10 10:55:34;;;;;;;2.13;0.57;;;8.00;99.90;;;;;;4881715;29;20102;-74
2023/01/10 10:58:04;;;;;;;0.40;0.25;;;8.00;99.90;;;;;;4896569;29;20044;-76
2023/01/10 11:00:31;;;;;;;1.48;0.52;;;8.00;99.90;;;;;;4911546;29;20048;-76
2023/01/10 11:03:04;;;;;;;1.17;0.65;;;8.10;99.90;;;;;;4911696;29;20048;-76
2023/01/10 11:05:36;;;;;;;0.85;0.40;;;8.10;99.90;;;;;;4895759;29;20138;-75
2023/01/10 11:08:14;;;;;;;0.28;0.28;;;8.10;99.90;;;;;;4912745;29;20518;-76
2023/01/10 11:10:55;;;;;;;3.97;0.30;;;8.20;99.90;;;;;;4912755;29;20054;-76
2023/01/10 11:13:22;;;;;;;2.03;0.52;;;8.20;99.90;;;;;;4910934;29;20119;-75
2023/01/10 11:15:49;;;;;;;2.85;0.47;;;8.20;99.90;;;;;;4931630;29;20043;-77
2023/01/10 11:18:20;;;;;;;1.85;0.43;;;8.20;99.90;;;;;;4932117;29;20066;-75
2023/01/10 11:20:57;;;;;;;1.55;0.40;;;8.30;99.90;;;;;;4931786;29;20051;-76
2023/01/10 11:23:25;;;;;;;1.10;0.63;;;8.40;99.90;;;;;;4915140;29;20061;-76
2023/01/10 11:25:52;;;;;;;0.43;0.40;;;8.40;99.90;;;;;;4931952;29;20388;-76
2023/01/10 11:28:20;;;;;;;1.50;0.68;;;8.40;99.90;;;;;;4931989;29;20094;-75
2023/01/10 11:30:47;;;;;;;0.40;0.40;;;8.40;99.90;;;;;;4901203;29;20055;-75
2023/01/10 11:33:20;;;;;;;0.80;0.40;;;8.50;99.90;;;;;;4915689;29;20059;-76
2023/01/10 11:36:02;;;;;;;1.03;0.40;;;8.50;99.90;;;;;;4899493;29;20103;-75
2023/01/10 11:38:29;;;;;;;1.63;0.57;;;8.60;99.90;;;;;;4914596;29;20325;-75
2023/01/10 11:40:57;;;;;;;1.88;0.40;;;8.50;99.90;;;;;;4914712;29;20052;-75
2023/01/10 11:43:26;;;;;;;1.23;0.30;;;8.60;99.90;;;;;;4931348;29;20044;-76
2023/01/10 11:46:04;;;;;;;0.52;0.30;;;8.60;99.90;;;;;;4931342;29;20542;-75
2023/01/10 11:48:49;;;;;;;2.40;0.50;;;8.70;99.90;;;;;;4914206;29;20047;-76
2023/01/10 11:51:36;;;;;;;2.55;0.63;;;8.70;99.90;;;;;;4887253;29;20055;-76
2023/01/10 11:54:10;;;;;;;0.35;0.30;;;8.80;99.90;;;;;;4930086;29;20043;-75
2023/01/10 11:56:38;;;;;;;1.70;0.82;;;8.80;99.90;;;;;;4915789;29;20079;-76
2023/01/10 11:59:13;;;;;;;2.00;0.40;;;8.80;99.90;;;;;;4914314;29;20055;-76
2023/01/10 12:01:59;;;;;;;0.38;0.30;;;8.90;99.90;;;;;;4931118;29;20439;-76
2023/01/10 12:04:28;;;;;;;0.45;0.40;;;9.00;99.90;;;;;;4914401;29;20085;-76
2023/01/10 12:06:58;;;;;;;0.98;0.30;;;9.00;99.90;;;;;;4931165;29;20103;-75
2023/01/10 12:09:35;;;;;;;0.75;0.50;;;9.10;99.90;;;;;;4914363;29;20059;-75
2023/01/10 12:12:04;;;;;;;2.67;0.50;;;9.10;99.90;;;;;;4931390;29;20138;-75
2023/01/10 12:14:30;;;;;;;0.25;0.25;;;9.20;99.90;;;;;;4931312;29;20047;-75
2023/01/10 12:16:59;;;;;;;0.75;0.75;;;9.20;99.90;;;;;;4926042;29;20054;-75
2023/01/10 12:19:26;;;;;;;0.82;0.47;;;9.30;99.90;;;;;;4935147;29;20130;-74
2023/01/10 12:21:53;;;;;;;2.30;0.63;;;9.30;99.90;;;;;;4918229;29;20601;-75
2023/01/10 12:24:34;;;;;;;1.63;0.57;;;9.40;99.90;;;;;;4902373;29;20582;-75
2023/01/10 12:27:02;;;;;;;1.27;0.40;;;9.50;99.90;;;;;;4918022;29;20048;-73
2023/01/10 12:29:34;;;;;;;3.60;0.60;;;9.60;99.90;;;;;;4918254;29;20118;-74
2023/01/10 12:32:00;;;;;;;2.80;1.38;;;9.70;99.90;;;;;;4903121;29;20083;-75
2023/01/10 12:34:45;;;;;;;1.65;0.65;;;9.80;99.90;;;;;;4917868;29;20090;-73
2023/01/10 12:37:33;;;;;;;1.83;0.70;;;9.90;99.90;;;;;;4900407;29;20131;-74
2023/01/10 12:40:03;;;;;;;17.58;1.48;;;10.00;99.90;;;;;;4928447;29;20131;-73
2023/01/10 12:45:53;;;;;;;5.30;1.25;;;10.20;99.90;;;;;;4934494;29;20047;-74
2023/01/10 12:48:29;;;;;;;4.43;0.80;;;10.20;99.90;;;;;;4917889;29;20114;-74
2023/01/10 12:51:03;;;;;;;7.05;1.50;;;10.30;99.90;;;;;;4917298;29;20135;-75
2023/01/10 12:53:30;;;;;;;;;;;10.40;99.90;;;;;;4919213;29;20434;-74
2023/01/10 12:55:59;;;;;;;2.95;0.80;;;10.50;99.90;;;;;;4934110;29;19923;-74
2023/01/10 12:58:46;;;;;;;8.13;1.70;;;10.50;99.90;;;;;;4917946;29;20106;-74
2023/01/10 13:01:17;;;;;;;7.45;2.25;;;10.60;99.90;;;;;;4917182;29;20063;-75
2023/01/10 13:03:45;;;;;;;8.13;1.98;;;10.60;99.90;;;;;;4917392;29;20048;-75
2023/01/10 13:06:20;;;;;;;14.65;1.80;;;10.70;99.90;;;;;;4917024;29;20555;-75
2023/01/10 13:08:47;;;;;;;19.98;3.45;;;10.80;99.90;;;;;;4902387;29;20051;-75
2023/01/10 13:11:14;;;;;;;19.83;3.50;;;10.80;99.90;;;;;;4917253;29;20073;-74
2023/01/10 13:13:49;;;;;;;19.45;3.42;;;10.90;99.90;;;;;;4901518;29;20058;-75
2023/01/10 13:16:29;;;;;;;25.10;3.72;;;11.00;99.90;;;;;;4917165;29;20056;-75
2023/01/10 13:19:09;;;;;;;20.38;3.58;;;11.10;99.90;;;;;;4917299;29;20131;-75